Time;durP1;ratioP1;P1;durP2;ratioP2;P2;SDS_P1;SDS_P2;PMS_P1;PMS_P2;Temp;Humidity;BMP_temperature;BMP_pressure;BME280_temperature;BME280_humidity;BME280_pressure;Samples;Min_cycle;Max_cycle;Signal;HPM_P1;HPM_P2
2020/12/16 00:02:22;;;;;;;50.43;31.27;;;10.00;1.00;;;;;;5076983;28;20177;-70
2020/12/16 00:04:47;;;;;;;56.30;30.87;;;10.00;1.00;;;;;;5077074;28;20690;-70
2020/12/16 00:07:13;;;;;;;64.90;35.33;;;10.10;1.00;;;;;;5076762;28;20518;-70
2020/12/16 00:09:39;;;;;;;52.63;31.87;;;10.00;1.00;;;;;;5076955;28;20189;-70
2020/12/16 00:12:04;;;;;;;57.80;34.33;;;10.10;1.00;;;;;;5077280;28;20623;-70
2020/12/16 00:14:30;;;;;;;59.63;30.43;;;10.10;1.00;;;;;;5076811;28;20638;-70
2020/12/16 00:16:55;;;;;;;49.53;30.27;;;10.10;1.00;;;;;;5076561;28;20198;-70
2020/12/16 00:19:21;;;;;;;53.90;33.27;;;10.00;1.00;;;;;;5076819;28;20176;-70
2020/12/16 00:21:47;;;;;;;64.47;32.77;;;10.10;1.00;;;;;;5076789;28;20196;-70
2020/12/16 00:24:12;;;;;;;58.50;38.10;;;10.00;1.00;;;;;;5076892;28;20177;-70
2020/12/16 00:26:38;;;;;;;70.40;34.20;;;10.00;1.00;;;;;;5076322;28;20275;-70
2020/12/16 00:29:03;;;;;;;73.90;34.60;;;10.00;1.00;;;;;;5076227;28;20200;-70
2020/12/16 00:31:29;;;;;;;65.03;35.20;;;10.00;1.00;;;;;;5076416;28;20179;-70
2020/12/16 00:33:56;;;;;;;56.40;34.30;;;10.00;1.00;;;;;;5076412;28;20181;-70
2020/12/16 00:36:21;;;;;;;61.10;34.13;;;10.00;1.00;;;;;;5076053;28;20268;-70
2020/12/16 00:38:47;;;;;;;59.10;35.97;;;10.00;1.00;;;;;;5076679;28;20833;-70
2020/12/16 00:41:13;;;;;;;60.40;35.90;;;10.00;1.00;;;;;;5076751;28;20169;-70
2020/12/16 00:43:38;;;;;;;81.80;37.27;;;10.00;1.00;;;;;;5076752;28;20177;-70
2020/12/16 00:46:04;;;;;;;56.97;35.57;;;10.00;1.00;;;;;;5076324;28;20650;-70
2020/12/16 00:48:29;;;;;;;70.20;31.97;;;10.00;1.00;;;;;;5075499;28;20208;-70
2020/12/16 00:50:55;;;;;;;73.23;32.17;;;10.00;1.00;;;;;;5076309;28;20191;-70
2020/12/16 00:53:20;;;;;;;67.70;39.10;;;10.00;1.00;;;;;;5076403;28;20165;-70
2020/12/16 00:55:46;;;;;;;58.27;35.27;;;9.90;1.00;;;;;;5076134;28;20670;-70
2020/12/16 00:58:11;;;;;;;57.57;34.03;;;9.90;1.00;;;;;;5076012;28;20524;-70
2020/12/16 01:00:37;;;;;;;49.87;31.70;;;9.90;1.00;;;;;;5076442;28;20256;-70
2020/12/16 01:03:04;;;;;;;51.00;32.43;;;9.90;1.00;;;;;;5075957;28;20507;-70
2020/12/16 01:05:29;;;;;;;63.60;29.30;;;9.90;1.00;;;;;;5075860;28;20619;-70
2020/12/16 01:07:55;;;;;;;50.03;30.60;;;9.80;1.00;;;;;;5075976;28;20499;-70
2020/12/16 01:10:21;;;;;;;65.90;31.90;;;9.80;1.00;;;;;;5076233;28;20235;-70
2020/12/16 01:12:48;;;;;;;60.67;34.93;;;9.80;1.00;;;;;;5076218;28;20167;-70
2020/12/16 01:15:19;;;;;;;44.33;30.97;;;9.80;1.00;;;;;;5075624;28;20445;-70
2020/12/16 01:17:46;;;;;;;51.40;30.23;;;9.80;1.00;;;;;;5075618;28;20480;-70
2020/12/16 01:20:13;;;;;;;66.53;30.07;;;9.70;1.00;;;;;;5075969;28;20457;-70
2020/12/16 01:22:42;;;;;;;45.77;32.33;;;9.70;1.00;;;;;;5075861;28;20739;-70
2020/12/16 01:25:09;;;;;;;47.80;32.20;;;9.60;1.00;;;;;;5075808;28;20446;-70
2020/12/16 01:27:36;;;;;;;50.13;29.87;;;9.60;1.00;;;;;;5075064;28;20484;-70
2020/12/16 01:30:06;;;;;;;51.90;29.43;;;9.60;1.00;;;;;;5075298;28;20451;-70
2020/12/16 01:32:32;;;;;;;52.23;33.33;;;9.60;1.00;;;;;;5075526;28;20475;-70
2020/12/16 01:35:01;;;;;;;54.00;29.77;;;9.60;1.00;;;;;;5075496;28;20420;-70
2020/12/16 01:37:27;;;;;;;53.37;32.10;;;9.60;1.00;;;;;;5075466;28;20716;-70
2020/12/16 01:39:53;;;;;;;45.03;31.00;;;9.50;1.00;;;;;;5075489;28;20506;-70
2020/12/16 01:42:18;;;;;;;47.47;28.00;;;9.60;1.00;;;;;;5075285;28;20165;-70
2020/12/16 01:44:44;;;;;;;49.07;27.23;;;9.50;1.00;;;;;;5075225;28;20746;-70
2020/12/16 01:47:09;;;;;;;67.10;28.50;;;9.60;1.00;;;;;;5075104;28;20184;-70
2020/12/16 01:49:35;;;;;;;70.40;32.60;;;9.60;1.00;;;;;;5075249;28;20314;-70
2020/12/16 01:52:06;;;;;;;49.63;30.87;;;9.60;1.00;;;;;;5075482;28;20243;-70
2020/12/16 01:54:34;;;;;;;52.13;29.70;;;9.60;1.00;;;;;;5075300;28;20222;-70
2020/12/16 01:57:02;;;;;;;50.70;32.90;;;9.50;1.00;;;;;;5074682;28;20419;-70
2020/12/16 01:59:34;;;;;;;57.37;28.70;;;9.50;1.00;;;;;;5073959;28;20423;-70
2020/12/16 02:02:02;;;;;;;46.73;27.13;;;9.50;1.00;;;;;;5075130;28;20404;-70
2020/12/16 02:04:34;;;;;;;60.93;30.13;;;9.60;1.00;;;;;;5075231;28;20524;-70
2020/12/16 02:07:05;;;;;;;43.87;29.50;;;9.50;1.00;;;;;;5074435;28;20419;-70
2020/12/16 02:09:38;;;;;;;79.63;33.27;;;9.60;1.00;;;;;;5074721;28;20454;-70
2020/12/16 02:12:20;;;;;;;61.17;32.63;;;9.60;1.00;;;;;;5074650;28;20396;-70
2020/12/16 02:14:46;;;;;;;52.07;32.37;;;9.50;1.00;;;;;;5074854;28;20396;-70
2020/12/16 02:17:12;;;;;;;53.13;30.70;;;9.50;1.00;;;;;;5074343;28;20537;-70
2020/12/16 02:19:40;;;;;;;57.30;30.50;;;9.50;1.00;;;;;;5074906;28;20399;-70
2020/12/16 02:22:07;;;;;;;56.33;30.73;;;9.50;1.00;;;;;;5074361;28;20404;-70
2020/12/16 02:24:35;;;;;;;62.60;32.37;;;9.60;1.00;;;;;;5074475;28;20408;-70
2020/12/16 02:27:01;;;;;;;58.73;30.73;;;9.60;1.00;;;;;;5074339;28;20423;-69
2020/12/16 02:29:27;;;;;;;40.30;28.10;;;9.60;1.00;;;;;;5074451;28;20500;-70
2020/12/16 02:31:53;;;;;;;60.93;35.03;;;9.60;1.00;;;;;;5074633;28;20165;-70
2020/12/16 02:34:19;;;;;;;55.73;32.03;;;9.60;1.00;;;;;;5073948;28;20826;-70
2020/12/16 02:36:45;;;;;;;52.87;26.03;;;9.60;1.00;;;;;;5074018;28;20498;-70
2020/12/16 02:39:11;;;;;;;72.03;38.10;;;9.60;1.00;;;;;;5073883;28;20813;-70
2020/12/16 02:41:36;;;;;;;60.67;33.30;;;9.70;1.00;;;;;;5072695;28;20418;-70
2020/12/16 02:44:02;;;;;;;70.90;32.07;;;9.60;1.00;;;;;;5074456;28;20207;-70
2020/12/16 02:46:28;;;;;;;58.47;34.10;;;9.60;1.00;;;;;;5073833;28;20196;-70
2020/12/16 02:48:53;;;;;;;61.53;31.67;;;9.70;1.00;;;;;;5073968;28;20225;-70
2020/12/16 02:51:19;;;;;;;51.03;32.50;;;9.70;1.00;;;;;;5073940;28;20165;-70
2020/12/16 02:53:44;;;;;;;88.57;33.83;;;9.60;1.00;;;;;;5074090;28;20165;-70
2020/12/16 02:56:10;;;;;;;77.97;35.87;;;9.70;1.00;;;;;;5073719;28;20189;-70
2020/12/16 02:58:43;;;;;;;69.70;36.73;;;9.70;1.00;;;;;;5074253;28;20174;-70
2020/12/16 03:01:08;;;;;;;57.33;36.33;;;9.60;1.00;;;;;;5074449;28;20171;-70
2020/12/16 03:03:34;;;;;;;58.80;37.23;;;9.60;1.00;;;;;;5073885;28;20400;-70
2020/12/16 03:06:00;;;;;;;58.47;37.03;;;9.60;1.00;;;;;;5073370;28;20224;-70
2020/12/16 03:08:25;;;;;;;62.40;33.40;;;9.60;1.00;;;;;;5074088;28;20199;-70
2020/12/16 03:10:51;;;;;;;58.50;36.13;;;9.60;1.00;;;;;;5073821;28;20161;-70
2020/12/16 03:13:16;;;;;;;47.57;31.23;;;9.60;1.00;;;;;;5073933;28;20169;-70
2020/12/16 03:15:42;;;;;;;71.17;33.33;;;9.60;1.00;;;;;;5073900;28;20247;-70
2020/12/16 03:18:07;;;;;;;58.13;34.53;;;9.60;1.00;;;;;;5073444;28;20173;-70
2020/12/16 03:20:33;;;;;;;51.63;34.17;;;9.60;1.00;;;;;;5073745;28;20543;-70
2020/12/16 03:22:58;;;;;;;57.27;35.30;;;9.50;1.00;;;;;;5073440;28;20169;-70
2020/12/16 03:25:24;;;;;;;68.47;29.80;;;9.50;1.00;;;;;;5073397;28;20169;-70
2020/12/16 03:27:49;;;;;;;88.43;33.10;;;9.50;1.00;;;;;;5073721;28;20169;-70
2020/12/16 03:30:15;;;;;;;57.23;34.37;;;9.40;1.00;;;;;;5074118;28;20248;-70
2020/12/16 03:32:41;;;;;;;67.17;32.80;;;9.40;1.00;;;;;;5073533;28;20188;-70
2020/12/16 03:35:06;;;;;;;63.37;32.90;;;9.30;1.00;;;;;;5073412;28;20286;-70
2020/12/16 03:37:32;;;;;;;48.33;28.40;;;9.30;1.00;;;;;;5073496;28;20193;-70
2020/12/16 03:39:57;;;;;;;67.03;29.83;;;9.20;1.00;;;;;;5073889;28;20173;-70
2020/12/16 03:42:23;;;;;;;45.30;28.67;;;9.20;1.00;;;;;;5073847;28;20288;-70
2020/12/16 03:44:48;;;;;;;65.63;30.50;;;9.20;1.00;;;;;;5074203;28;20169;-70
2020/12/16 03:47:15;;;;;;;46.33;31.20;;;9.20;1.00;;;;;;5073261;28;20204;-70
2020/12/16 03:49:40;;;;;;;61.17;32.63;;;9.10;1.00;;;;;;5073352;28;20531;-70
2020/12/16 03:52:06;;;;;;;60.30;32.50;;;9.10;1.00;;;;;;5073612;28;20404;-70
2020/12/16 03:54:32;;;;;;;51.43;26.10;;;9.20;1.00;;;;;;5073725;28;20628;-70
2020/12/16 03:56:57;;;;;;;51.30;28.40;;;9.20;1.00;;;;;;5073009;28;20628;-70
2020/12/16 03:59:23;;;;;;;53.10;32.40;;;9.20;1.00;;;;;;5073918;28;20546;-70
2020/12/16 04:01:51;;;;;;;67.97;31.50;;;9.10;1.00;;;;;;5073368;28;20169;-70
2020/12/16 04:04:17;;;;;;;49.93;28.97;;;9.20;1.00;;;;;;5073531;28;20252;-70
2020/12/16 04:06:42;;;;;;;50.40;26.57;;;9.20;1.00;;;;;;5073523;28;20470;-70
2020/12/16 04:09:08;;;;;;;44.47;30.47;;;9.10;1.00;;;;;;5073441;28;20284;-70
2020/12/16 04:11:33;;;;;;;59.37;32.30;;;9.20;1.00;;;;;;5073637;28;20684;-70
2020/12/16 04:13:59;;;;;;;54.43;26.73;;;9.10;1.00;;;;;;5073673;28;20169;-70
2020/12/16 04:16:24;;;;;;;56.67;35.37;;;9.10;1.00;;;;;;5072893;28;20189;-70
2020/12/16 04:18:51;;;;;;;58.47;32.07;;;9.10;1.00;;;;;;5073149;28;20177;-70
2020/12/16 04:21:19;;;;;;;55.67;32.07;;;9.10;1.00;;;;;;5073465;28;20615;-70
2020/12/16 04:23:45;;;;;;;63.93;29.70;;;9.10;1.00;;;;;;5076122;28;20889;-70
2020/12/16 04:26:11;;;;;;;39.20;28.43;;;9.10;1.00;;;;;;5076727;28;20477;-70
2020/12/16 04:28:37;;;;;;;45.60;30.97;;;9.20;1.00;;;;;;5077160;28;20451;-70
2020/12/16 04:31:05;;;;;;;51.67;27.43;;;9.10;1.00;;;;;;5076585;28;20243;-70
2020/12/16 04:33:31;;;;;;;47.73;28.20;;;9.10;1.00;;;;;;5076457;28;20414;-70
2020/12/16 04:35:56;;;;;;;42.57;27.63;;;9.10;1.00;;;;;;5076608;28;20423;-70
2020/12/16 04:38:22;;;;;;;48.57;28.10;;;9.10;1.00;;;;;;5075448;28;20553;-70
2020/12/16 04:40:48;;;;;;;52.30;31.50;;;9.00;1.00;;;;;;5076910;28;20239;-70
2020/12/16 04:43:19;;;;;;;62.00;31.50;;;9.00;1.00;;;;;;5076247;28;20436;-70
2020/12/16 04:45:46;;;;;;;46.57;31.30;;;9.00;1.00;;;;;;5076023;28;20170;-70
2020/12/16 04:48:13;;;;;;;49.50;28.37;;;9.00;1.00;;;;;;5076370;28;20539;-70
2020/12/16 04:50:40;;;;;;;52.83;32.33;;;9.00;1.00;;;;;;5076385;28;20966;-70
2020/12/16 04:53:09;;;;;;;48.63;30.23;;;8.90;1.00;;;;;;5076476;28;20407;-70
2020/12/16 04:55:35;;;;;;;50.73;28.80;;;8.90;1.00;;;;;;5076481;28;20473;-70
2020/12/16 04:58:02;;;;;;;41.37;30.47;;;8.90;1.00;;;;;;5075934;28;20807;-70
2020/12/16 05:00:30;;;;;;;42.27;26.87;;;8.90;1.00;;;;;;5076197;28;20403;-70
2020/12/16 05:02:58;;;;;;;57.40;27.73;;;8.90;1.00;;;;;;5076056;28;20403;-70
2020/12/16 05:05:24;;;;;;;48.67;27.43;;;8.90;1.00;;;;;;5076161;28;20498;-70
2020/12/16 05:07:51;;;;;;;37.13;27.90;;;8.80;1.00;;;;;;5075529;28;20460;-70
2020/12/16 05:10:32;;;;;;;53.40;25.53;;;8.80;1.00;;;;;;5075880;28;20481;-70
2020/12/16 05:13:05;;;;;;;42.33;29.03;;;8.80;1.00;;;;;;5076226;28;20901;-70
2020/12/16 05:15:31;;;;;;;42.33;27.70;;;8.90;1.00;;;;;;5075845;28;20392;-70
2020/12/16 05:18:04;;;;;;;41.83;23.60;;;8.80;1.00;;;;;;5075998;28;20730;-70
2020/12/16 05:20:30;;;;;;;44.43;26.40;;;8.80;1.00;;;;;;5076172;28;20402;-70
2020/12/16 05:23:00;;;;;;;34.07;26.37;;;8.80;1.00;;;;;;5075655;28;20403;-70
2020/12/16 05:25:27;;;;;;;43.13;25.00;;;8.70;1.00;;;;;;5075464;28;20404;-70
2020/12/16 05:27:53;;;;;;;39.25;24.88;;;8.70;1.00;;;;;;5075472;28;20791;-70
2020/12/16 05:30:18;;;;;;;35.27;26.60;;;8.60;1.00;;;;;;5075319;28;20166;-70
2020/12/16 05:32:44;;;;;;;38.50;27.30;;;8.60;1.00;;;;;;5075798;28;20745;-70
2020/12/16 05:35:33;;;;;;;38.67;23.87;;;8.50;1.00;;;;;;5075273;28;20425;-70
2020/12/16 05:38:03;;;;;;;35.83;23.93;;;8.40;1.00;;;;;;5075237;28;20185;-70
2020/12/16 05:40:30;;;;;;;33.27;23.30;;;8.30;1.00;;;;;;5075631;28;20488;-70
2020/12/16 05:42:56;;;;;;;38.33;24.58;;;8.30;1.00;;;;;;5075432;28;20926;-70
2020/12/16 05:45:25;;;;;;;31.83;26.55;;;8.20;1.00;;;;;;5075373;28;20180;-70
2020/12/16 05:48:02;;;;;;;33.43;28.80;;;8.10;1.00;;;;;;5074666;28;20176;-70
2020/12/16 05:50:38;;;;;;;34.50;23.08;;;8.00;1.00;;;;;;5075142;28;20392;-70
2020/12/16 05:53:27;;;;;;;33.90;26.52;;;7.90;1.00;;;;;;5073876;28;20204;-70
2020/12/16 05:55:54;;;;;;;27.15;21.95;;;7.80;1.00;;;;;;5075281;28;20273;-70
2020/12/16 05:58:22;;;;;;;33.50;26.45;;;7.70;1.00;;;;;;5074871;28;20641;-70
2020/12/16 06:00:53;;;;;;;32.05;28.20;;;7.60;1.00;;;;;;5074582;28;20165;-70
2020/12/16 06:03:27;;;;;;;38.83;29.35;;;7.60;1.00;;;;;;5074999;28;20716;-70
2020/12/16 06:05:58;;;;;;;37.78;22.90;;;7.50;1.00;;;;;;5074718;28;20200;-70
2020/12/16 06:08:25;;;;;;;38.50;29.55;;;7.50;1.00;;;;;;5075048;28;20205;-70
2020/12/16 06:10:52;;;;;;;35.30;24.55;;;7.40;1.00;;;;;;5075059;28;20169;-70
2020/12/16 06:13:19;;;;;;;31.92;24.45;;;7.40;1.00;;;;;;5074649;28;20252;-70
2020/12/16 06:15:50;;;;;;;54.00;31.70;;;7.30;1.00;;;;;;5074357;28;20189;-70
2020/12/16 06:18:17;;;;;;;34.20;28.80;;;7.30;1.00;;;;;;5074686;28;20169;-70
2020/12/16 06:20:43;;;;;;;29.77;26.30;;;7.20;1.00;;;;;;5074767;28;20330;-70
2020/12/16 06:23:22;;;;;;;34.20;28.25;;;7.10;1.00;;;;;;5074865;28;20173;-70
2020/12/16 06:25:50;;;;;;;32.58;28.92;;;7.00;1.00;;;;;;5074388;28;20189;-70
2020/12/16 06:28:16;;;;;;;38.30;31.17;;;6.90;1.00;;;;;;5073843;28;20250;-70
2020/12/16 06:31:04;;;;;;;32.50;25.23;;;6.90;1.00;;;;;;5074163;28;20180;-70
2020/12/16 06:33:42;;;;;;;40.55;36.80;;;6.90;1.00;;;;;;5074289;28;20404;-70
2020/12/16 06:36:10;;;;;;;39.88;22.80;;;6.70;1.00;;;;;;5074049;28;20690;-70
2020/12/16 06:38:47;;;;;;;28.90;25.35;;;6.70;1.00;;;;;;5074123;28;20176;-70
2020/12/16 06:41:24;;;;;;;30.17;27.00;;;6.60;1.00;;;;;;5074353;28;20177;-70
2020/12/16 06:43:51;;;;;;;35.53;30.48;;;6.50;1.00;;;;;;5074308;28;20169;-70
2020/12/16 06:46:32;;;;;;;30.52;27.45;;;6.50;1.00;;;;;;5073773;28;20193;-70
2020/12/16 06:49:03;;;;;;;33.20;29.75;;;6.50;1.00;;;;;;5073931;28;20200;-70
2020/12/16 06:51:36;;;;;;;30.27;27.40;;;6.40;1.00;;;;;;5074114;28;20252;-70
2020/12/16 06:54:07;;;;;;;28.85;23.60;;;6.40;1.00;;;;;;5074172;28;20165;-70
2020/12/16 06:56:33;;;;;;;28.33;23.10;;;6.40;1.00;;;;;;5072462;28;20276;-70
2020/12/16 06:58:58;;;;;;;37.15;24.75;;;6.30;1.00;;;;;;5073734;28;20191;-70
2020/12/16 07:01:24;;;;;;;35.30;25.20;;;6.30;1.00;;;;;;5073833;28;20611;-70
2020/12/16 07:03:50;;;;;;;44.17;25.97;;;6.30;1.00;;;;;;5073962;28;20177;-70
2020/12/16 07:06:28;;;;;;;27.07;24.47;;;6.30;1.00;;;;;;5073539;28;20431;-70
2020/12/16 07:09:16;;;;;;;32.70;29.73;;;6.20;1.00;;;;;;5073696;28;20208;-70
2020/12/16 07:11:53;;;;;;;31.42;27.60;;;6.10;1.00;;;;;;5073470;28;20656;-69
2020/12/16 07:14:22;;;;;;;30.40;27.30;;;6.10;1.00;;;;;;5073853;28;20613;-70
2020/12/16 07:16:48;;;;;;;34.85;26.70;;;6.10;1.00;;;;;;5072154;28;20663;-70
2020/12/16 07:19:15;;;;;;;28.43;25.47;;;6.10;1.00;;;;;;5073857;28;20179;-70
2020/12/16 07:21:42;;;;;;;28.95;25.38;;;6.10;1.00;;;;;;5073785;28;20403;-70
2020/12/16 07:24:15;;;;;;;33.22;26.38;;;6.10;1.00;;;;;;5073520;28;20169;-70
2020/12/16 07:26:46;;;;;;;36.22;30.55;;;6.00;1.00;;;;;;5073275;28;20200;-70
2020/12/16 07:29:30;;;;;;;32.72;26.55;;;6.00;1.00;;;;;;5073562;28;20215;-70
2020/12/16 07:32:03;;;;;;;35.10;31.75;;;5.90;1.00;;;;;;5073765;28;20173;-70
2020/12/16 07:34:31;;;;;;;33.08;26.08;;;5.90;1.00;;;;;;5073333;28;20180;-70
2020/12/16 07:37:03;;;;;;;32.55;24.92;;;5.90;1.00;;;;;;5073287;28;20224;-70
2020/12/16 07:39:30;;;;;;;36.20;29.42;;;5.90;1.00;;;;;;5073633;28;20176;-70
2020/12/16 07:41:57;;;;;;;32.75;29.30;;;5.90;1.00;;;;;;5073741;28;20173;-70
2020/12/16 07:44:24;;;;;;;30.25;27.40;;;5.90;1.00;;;;;;5073832;28;20212;-70
2020/12/16 07:46:50;;;;;;;32.00;28.08;;;5.80;1.00;;;;;;5073258;28;20220;-70
2020/12/16 07:49:18;;;;;;;35.25;28.33;;;5.80;1.00;;;;;;5073230;28;20196;-70
2020/12/16 07:51:43;;;;;;;51.72;35.38;;;5.80;1.00;;;;;;5073440;28;20165;-70
2020/12/16 07:54:09;;;;;;;59.97;37.00;;;5.80;1.00;;;;;;5073538;28;20207;-70
2020/12/16 07:56:35;;;;;;;57.90;32.87;;;5.80;1.00;;;;;;5073037;28;20190;-70
2020/12/16 07:59:14;;;;;;;49.77;33.37;;;5.90;1.00;;;;;;5077219;28;20403;-70
2020/12/16 08:01:40;;;;;;;74.43;41.72;;;6.00;1.00;;;;;;5075822;28;20177;-70
2020/12/16 08:04:06;;;;;;;68.90;37.40;;;6.10;1.00;;;;;;5077112;28;20173;-69
2020/12/16 08:06:32;;;;;;;72.83;43.07;;;6.20;1.00;;;;;;5076847;28;20670;-70
2020/12/16 08:08:59;;;;;;;75.60;41.10;;;6.40;1.00;;;;;;5077217;28;20443;-70
2020/12/16 08:11:27;;;;;;;79.22;43.40;;;6.50;1.00;;;;;;5077320;28;20242;-70
2020/12/16 08:14:06;;;;;;;110.05;40.95;;;6.60;1.00;;;;;;5076652;28;20782;-70
2020/12/16 08:16:34;;;;;;;103.97;41.88;;;6.70;1.00;;;;;;5076847;28;20564;-70
2020/12/16 08:19:00;;;;;;;73.53;40.30;;;6.80;1.00;;;;;;5077100;28;20173;-70
2020/12/16 08:21:25;;;;;;;70.13;41.42;;;6.90;1.00;;;;;;5077004;28;20177;-69
2020/12/16 08:23:52;;;;;;;85.00;45.07;;;7.00;1.00;;;;;;5077123;28;20177;-70
2020/12/16 08:26:20;;;;;;;73.20;39.17;;;7.10;1.00;;;;;;5076675;28;20268;-70
2020/12/16 08:28:46;;;;;;;75.65;42.42;;;7.20;1.00;;;;;;5076404;28;20205;-70
2020/12/16 08:31:15;;;;;;;68.78;38.45;;;7.20;1.00;;;;;;5076838;28;20559;-70
2020/12/16 08:33:43;;;;;;;71.05;39.30;;;7.20;1.00;;;;;;5076472;28;20205;-70
2020/12/16 08:36:15;;;;;;;73.80;40.28;;;7.30;1.00;;;;;;5076270;28;20238;-70
2020/12/16 08:38:43;;;;;;;77.32;41.72;;;7.30;1.00;;;;;;5076707;28;20180;-69
2020/12/16 08:41:11;;;;;;;76.78;46.90;;;7.20;1.00;;;;;;5076539;28;20252;-70
2020/12/16 08:43:39;;;;;;;70.43;42.67;;;7.30;1.00;;;;;;5076470;28;20173;-70
2020/12/16 08:46:15;;;;;;;81.47;43.55;;;7.30;1.00;;;;;;5076077;28;20189;-71
2020/12/16 08:48:49;;;;;;;73.80;42.55;;;7.40;1.00;;;;;;5076512;28;20288;-70
2020/12/16 08:51:21;;;;;;;81.82;42.00;;;7.40;1.00;;;;;;5076643;28;20176;-70
2020/12/16 08:53:59;;;;;;;73.60;42.13;;;7.40;1.00;;;;;;5075306;28;20173;-70
2020/12/16 08:56:39;;;;;;;85.93;46.28;;;7.40;1.00;;;;;;5074621;28;20185;-70
2020/12/16 08:59:06;;;;;;;76.10;39.97;;;7.50;1.00;;;;;;5076391;28;20180;-70
2020/12/16 09:01:32;;;;;;;71.65;43.60;;;7.50;1.00;;;;;;5076603;28;20205;-70
2020/12/16 09:03:58;;;;;;;73.78;39.08;;;7.50;1.00;;;;;;5075759;28;20169;-70
2020/12/16 09:06:24;;;;;;;82.80;43.77;;;7.50;1.00;;;;;;5072354;28;20701;-70
2020/12/16 09:08:49;;;;;;;81.53;43.00;;;7.50;1.00;;;;;;5073244;28;20251;-70
2020/12/16 09:11:19;;;;;;;76.87;40.87;;;7.40;1.00;;;;;;5073913;28;20169;-70
2020/12/16 09:13:45;;;;;;;82.35;43.08;;;7.50;1.00;;;;;;5072332;28;20173;-70
2020/12/16 09:16:21;;;;;;;77.65;44.83;;;7.50;1.00;;;;;;5073538;28;20574;-70
2020/12/16 09:18:48;;;;;;;65.05;43.00;;;7.50;1.00;;;;;;5073597;28;20568;-70
2020/12/16 09:21:28;;;;;;;65.65;39.08;;;7.60;1.00;;;;;;5073090;28;20663;-70
2020/12/16 09:23:54;;;;;;;70.60;39.53;;;7.60;1.00;;;;;;5072904;28;20554;-70
2020/12/16 09:26:31;;;;;;;61.73;37.03;;;7.70;1.00;;;;;;5072026;28;20197;-70
2020/12/16 09:28:57;;;;;;;59.88;39.33;;;7.60;1.00;;;;;;5073306;28;21006;-70
2020/12/16 09:31:23;;;;;;;53.60;37.13;;;7.60;1.00;;;;;;5073461;28;20181;-70
2020/12/16 09:33:58;;;;;;;63.07;41.83;;;7.60;1.00;;;;;;5073187;28;20855;-70
2020/12/16 09:36:28;;;;;;;80.88;33.70;;;7.50;1.00;;;;;;5073103;28;20223;-70
2020/12/16 09:38:56;;;;;;;60.47;32.72;;;7.50;1.00;;;;;;5073156;28;20177;-70
2020/12/16 09:41:21;;;;;;;79.82;34.67;;;7.50;1.00;;;;;;5073249;28;20174;-71
2020/12/16 09:43:47;;;;;;;76.63;35.40;;;7.40;1.00;;;;;;5073050;28;20528;-70
2020/12/16 09:46:17;;;;;;;55.40;30.50;;;7.40;1.00;;;;;;5071591;28;20309;-70
2020/12/16 09:48:45;;;;;;;63.50;31.27;;;7.30;1.00;;;;;;5071764;28;20200;-70
2020/12/16 09:51:14;;;;;;;51.50;33.22;;;7.30;1.00;;;;;;5073032;28;20192;-70
2020/12/16 09:53:40;;;;;;;44.35;32.25;;;7.30;1.00;;;;;;5072608;28;20196;-71
2020/12/16 09:56:06;;;;;;;52.30;31.85;;;7.30;1.00;;;;;;5072781;28;20193;-70
2020/12/16 09:58:38;;;;;;;41.95;30.67;;;7.30;1.00;;;;;;5072584;28;20219;-70
2020/12/16 10:01:05;;;;;;;47.55;33.80;;;7.30;1.00;;;;;;5072877;28;20185;-70
2020/12/16 10:03:31;;;;;;;62.95;36.20;;;7.10;1.00;;;;;;5072807;28;20215;-70
2020/12/16 10:05:56;;;;;;;43.57;34.03;;;7.10;1.00;;;;;;5072869;28;20223;-74
2020/12/16 10:08:22;;;;;;;45.63;32.13;;;7.10;1.00;;;;;;5073871;28;20197;-70
2020/12/16 10:10:47;;;;;;;37.53;28.90;;;7.10;1.00;;;;;;5074607;28;20161;-75
2020/12/16 10:13:14;;;;;;;40.67;32.43;;;7.10;1.00;;;;;;5073149;28;20306;-72
2020/12/16 10:15:40;;;;;;;46.70;34.63;;;7.20;1.00;;;;;;5072821;28;20176;-72
2020/12/16 10:18:06;;;;;;;38.77;33.40;;;7.20;1.00;;;;;;5071492;28;20189;-72
2020/12/16 10:20:31;;;;;;;45.90;34.93;;;7.20;1.00;;;;;;5071877;28;20178;-72
2020/12/16 10:22:57;;;;;;;39.03;35.20;;;7.10;1.00;;;;;;5070364;28;20180;-71
2020/12/16 10:25:23;;;;;;;34.40;30.67;;;7.20;1.00;;;;;;5072461;28;20177;-71
2020/12/16 10:27:49;;;;;;;32.70;29.43;;;7.10;1.00;;;;;;5071487;28;20270;-71
2020/12/16 10:30:14;;;;;;;34.05;30.65;;;7.10;1.00;;;;;;5071472;28;20287;-71
2020/12/16 10:32:40;;;;;;;39.63;33.23;;;7.10;1.00;;;;;;5072139;28;20256;-71
2020/12/16 10:35:09;;;;;;;37.10;33.10;;;7.20;1.00;;;;;;5069989;28;20184;-71
2020/12/16 10:37:35;;;;;;;33.70;29.65;;;7.20;1.00;;;;;;5071929;28;20270;-71
2020/12/16 10:40:00;;;;;;;32.67;27.77;;;7.30;1.00;;;;;;5071491;28;20173;-71
2020/12/16 10:42:26;;;;;;;36.83;33.40;;;7.30;1.00;;;;;;5071765;28;20184;-72
2020/12/16 10:44:51;;;;;;;43.83;39.70;;;7.30;1.00;;;;;;5072437;28;20180;-71
2020/12/16 10:47:17;;;;;;;40.77;36.27;;;7.30;1.00;;;;;;5071916;28;20283;-72
2020/12/16 10:49:43;;;;;;;36.27;32.40;;;7.40;1.00;;;;;;5071537;28;20207;-72
2020/12/16 10:52:14;;;;;;;38.80;34.87;;;7.40;1.00;;;;;;5071938;28;20173;-71
2020/12/16 10:54:40;;;;;;;40.30;35.38;;;7.40;1.00;;;;;;5072114;28;20242;-71
2020/12/16 10:57:06;;;;;;;37.97;32.73;;;7.50;1.00;;;;;;5071605;28;20710;-71
2020/12/16 10:59:32;;;;;;;38.83;35.15;;;7.50;1.00;;;;;;5072006;28;20410;-71
2020/12/16 11:01:58;;;;;;;40.43;36.63;;;7.60;1.00;;;;;;5071994;28;20251;-72
2020/12/16 11:04:25;;;;;;;38.50;34.67;;;7.60;1.00;;;;;;5071664;28;20294;-71
2020/12/16 11:06:51;;;;;;;39.22;33.25;;;7.70;1.00;;;;;;5071686;28;20236;-72
2020/12/16 11:09:18;;;;;;;43.77;39.27;;;7.70;1.00;;;;;;5071936;28;20233;-71
2020/12/16 11:11:47;;;;;;;37.73;33.40;;;7.70;1.00;;;;;;5072002;28;20404;-71
2020/12/16 11:14:13;;;;;;;37.38;33.28;;;7.80;1.00;;;;;;5072025;28;20494;-71
2020/12/16 11:16:40;;;;;;;33.97;30.40;;;7.80;1.00;;;;;;5071689;28;20276;-71
2020/12/16 11:19:07;;;;;;;36.30;32.40;;;7.90;1.00;;;;;;5071416;28;20490;-71
2020/12/16 11:21:41;;;;;;;39.83;35.77;;;7.90;1.00;;;;;;5071386;28;20176;-71
2020/12/16 11:24:08;;;;;;;36.60;33.03;;;8.00;1.00;;;;;;5070148;28;20486;-71
2020/12/16 11:26:41;;;;;;;41.25;37.03;;;8.00;1.00;;;;;;5071596;28;20229;-72
2020/12/16 11:29:08;;;;;;;41.33;37.30;;;8.00;1.00;;;;;;5072967;28;20207;-76
2020/12/16 11:31:41;;;;;;;38.25;33.80;;;8.00;1.00;;;;;;5074398;28;20176;-76
2020/12/16 11:34:08;;;;;;;35.93;32.13;;;8.10;1.00;;;;;;5076333;28;20639;-72
2020/12/16 11:36:38;;;;;;;33.13;29.43;;;8.20;1.00;;;;;;5075683;28;20435;-72
2020/12/16 11:39:05;;;;;;;37.63;30.30;;;8.30;1.00;;;;;;5075786;28;20835;-72
2020/12/16 11:41:31;;;;;;;33.70;30.27;;;8.30;1.00;;;;;;5075729;28;20407;-72
2020/12/16 11:43:56;;;;;;;34.43;30.57;;;8.40;1.00;;;;;;5075371;28;20465;-72
2020/12/16 11:46:22;;;;;;;37.20;33.13;;;8.40;1.00;;;;;;5075459;28;20246;-71
2020/12/16 11:48:48;;;;;;;30.50;27.60;;;8.50;1.00;;;;;;5074876;28;20211;-71
2020/12/16 11:51:14;;;;;;;34.43;31.00;;;8.50;1.00;;;;;;5075331;28;20173;-71
2020/12/16 11:53:39;;;;;;;30.37;27.17;;;8.50;1.00;;;;;;5075745;28;20813;-72
2020/12/16 11:56:05;;;;;;;35.80;32.27;;;8.60;1.00;;;;;;5075405;28;20419;-72
2020/12/16 11:58:31;;;;;;;40.20;29.40;;;8.60;1.00;;;;;;5075543;28;20173;-72
2020/12/16 12:00:56;;;;;;;37.93;34.30;;;8.60;1.00;;;;;;5075571;28;20215;-72
2020/12/16 12:03:22;;;;;;;40.50;36.60;;;8.70;1.00;;;;;;5075621;28;20196;-72
2020/12/16 12:05:48;;;;;;;34.33;31.10;;;8.80;1.00;;;;;;5075401;28;20222;-72
2020/12/16 12:08:13;;;;;;;35.03;31.40;;;8.80;1.00;;;;;;5075220;28;20173;-72
2020/12/16 12:10:39;;;;;;;37.70;34.10;;;8.90;1.00;;;;;;5075643;28;20411;-72
2020/12/16 12:13:05;;;;;;;39.97;36.00;;;8.90;1.00;;;;;;5075233;28;20166;-72
2020/12/16 12:15:32;;;;;;;36.13;32.67;;;8.90;1.00;;;;;;5075129;28;20623;-72
2020/12/16 12:17:58;;;;;;;30.83;27.70;;;9.00;1.00;;;;;;5075146;28;20631;-72
2020/12/16 12:20:23;;;;;;;43.47;39.47;;;9.00;1.00;;;;;;5074757;28;20399;-72
2020/12/16 12:22:49;;;;;;;37.03;33.73;;;9.00;1.00;;;;;;5073593;28;20180;-72
2020/12/16 12:25:14;;;;;;;36.97;33.57;;;9.20;1.00;;;;;;5075017;28;20623;-71
2020/12/16 12:27:40;;;;;;;29.83;26.87;;;9.20;1.00;;;;;;5073353;28;20232;-72
2020/12/16 12:30:06;;;;;;;30.90;28.00;;;9.20;1.00;;;;;;5074693;28;20196;-72
2020/12/16 12:32:32;;;;;;;34.10;30.70;;;9.30;1.00;;;;;;5074731;28;20173;-71
2020/12/16 12:34:57;;;;;;;36.27;33.03;;;9.30;1.00;;;;;;5073674;28;20185;-71
2020/12/16 12:37:23;;;;;;;31.93;29.00;;;9.20;1.00;;;;;;5074328;28;20877;-72
2020/12/16 12:39:50;;;;;;;36.70;33.37;;;9.30;1.00;;;;;;5074690;28;20173;-71
2020/12/16 12:42:16;;;;;;;33.47;30.07;;;9.20;1.00;;;;;;5074399;28;20180;-71
2020/12/16 12:44:41;;;;;;;35.07;32.00;;;9.10;1.00;;;;;;5073648;28;20404;-72
2020/12/16 12:47:07;;;;;;;34.20;29.23;;;9.20;1.00;;;;;;5074206;28;20467;-72
2020/12/16 12:49:33;;;;;;;33.60;30.17;;;9.10;1.00;;;;;;5074385;28;20201;-71